createdAt,value
2022-09-04T00:00:49.704Z,12.64
2022-09-04T00:01:49.687Z,12.62
2022-09-04T00:02:49.686Z,12.60
2022-09-04T00:03:50.586Z,12.59
2022-09-04T00:04:49.823Z,12.59
2022-09-04T00:05:49.649Z,12.57
2022-09-04T00:06:49.637Z,12.56
2022-09-04T00:07:49.606Z,12.56
2022-09-04T00:08:49.617Z,12.56
2022-09-04T00:09:49.592Z,12.54
2022-09-04T00:10:49.588Z,12.56
2022-09-04T00:11:49.566Z,12.53
2022-09-04T00:12:49.569Z,12.56
2022-09-04T00:13:49.568Z,12.56
2022-09-04T00:14:49.577Z,12.54
2022-09-04T00:15:49.540Z,12.53
2022-09-04T00:16:49.563Z,12.53
2022-09-04T00:17:49.527Z,12.53
2022-09-04T00:18:49.569Z,12.52
2022-09-04T00:19:49.488Z,12.49
2022-09-04T00:20:49.678Z,12.47
2022-09-04T00:21:49.457Z,12.45
2022-09-04T00:22:49.472Z,12.42
2022-09-04T00:23:49.441Z,12.41
2022-09-04T00:24:49.447Z,12.41
2022-09-04T00:25:49.846Z,12.38
2022-09-04T00:26:49.419Z,12.38
2022-09-04T00:27:49.388Z,12.38
2022-09-04T00:28:49.397Z,12.38
2022-09-04T00:29:49.461Z,12.38
2022-09-04T00:30:49.448Z,12.37
2022-09-04T00:31:49.347Z,12.35
2022-09-04T00:32:49.357Z,12.32
2022-09-04T00:33:49.327Z,12.31
2022-09-04T00:34:49.327Z,12.32
2022-09-04T00:35:49.309Z,12.31
2022-09-04T00:36:50.351Z,12.32
2022-09-04T00:37:49.325Z,12.32
2022-09-04T00:38:49.311Z,12.32
2022-09-04T00:39:49.387Z,12.28
2022-09-04T00:40:49.281Z,12.27
2022-09-04T00:41:49.237Z,12.27
2022-09-04T00:42:49.256Z,12.23
2022-09-04T00:43:49.220Z,12.24
2022-09-04T00:44:49.237Z,12.23
2022-09-04T00:45:49.240Z,12.24
2022-09-04T00:46:49.190Z,12.24
2022-09-04T00:47:49.187Z,12.21
2022-09-04T00:48:49.165Z,12.20
2022-09-04T00:49:49.157Z,12.20
2022-09-04T00:50:49.128Z,12.19
2022-09-04T00:51:49.146Z,12.19
2022-09-04T00:52:49.118Z,12.17
2022-09-04T00:53:49.107Z,12.16
2022-09-04T00:54:49.090Z,12.16
2022-09-04T00:55:49.098Z,12.14
2022-09-04T00:56:49.069Z,12.14
2022-09-04T00:57:49.074Z,12.14
2022-09-04T00:58:49.058Z,12.10
2022-09-04T00:59:49.057Z,12.10
2022-09-04T01:00:49.074Z,12.10
2022-09-04T01:01:49.135Z,12.09
2022-09-04T01:02:49.026Z,12.07
2022-09-04T01:03:49.007Z,12.04
2022-09-04T01:04:49.135Z,11.99
2022-09-04T01:05:48.976Z,11.98
2022-09-04T01:06:48.950Z,11.95
2022-09-04T01:07:48.947Z,11.91
2022-09-04T01:08:48.953Z,11.91
2022-09-04T01:09:49.951Z,11.90
2022-09-04T01:10:48.906Z,11.88
2022-09-04T01:11:48.908Z,11.90
2022-09-04T01:12:48.879Z,11.91
2022-09-04T01:13:48.878Z,11.90
2022-09-04T01:14:49.943Z,11.86
2022-09-04T01:15:48.859Z,11.88
2022-09-04T01:16:48.891Z,11.88
2022-09-04T01:17:48.838Z,11.86
2022-09-04T01:18:48.807Z,11.83
2022-09-04T01:19:48.817Z,11.83
2022-09-04T01:20:48.787Z,11.83
2022-09-04T01:21:48.788Z,11.82
2022-09-04T01:22:48.768Z,11.82
2022-09-04T01:23:48.759Z,11.80
2022-09-04T01:24:48.748Z,11.79
2022-09-04T01:25:48.747Z,11.79
2022-09-04T01:26:48.718Z,11.78
2022-09-04T01:27:48.724Z,11.78
2022-09-04T01:28:48.697Z,11.78
2022-09-04T01:29:48.695Z,11.78
2022-09-04T01:30:48.678Z,11.78
2022-09-04T01:31:48.784Z,11.76
2022-09-04T01:32:48.647Z,11.79
2022-09-04T01:33:48.648Z,11.73
2022-09-04T01:34:48.626Z,11.72
2022-09-04T01:35:48.657Z,11.70
2022-09-04T01:36:48.608Z,11.72
2022-09-04T01:37:48.605Z,11.70
2022-09-04T01:38:48.588Z,11.69
2022-09-04T01:39:48.651Z,11.72
2022-09-04T01:40:48.558Z,11.69
2022-09-04T01:41:48.558Z,11.70
2022-09-04T01:42:48.547Z,11.72
2022-09-04T01:43:48.537Z,11.70
2022-09-04T01:44:48.519Z,11.70
2022-09-04T01:45:48.583Z,11.70
2022-09-04T01:46:48.496Z,11.67
2022-09-04T01:47:48.509Z,11.65
2022-09-04T01:48:48.747Z,11.64
2022-09-04T01:49:48.475Z,11.64
2022-09-04T01:50:48.465Z,11.62
2022-09-04T01:51:48.448Z,11.61
2022-09-04T01:52:48.426Z,11.58
2022-09-04T01:53:48.427Z,11.58
2022-09-04T01:54:48.404Z,11.55
2022-09-04T01:55:48.397Z,11.55
2022-09-04T01:56:48.389Z,11.54
2022-09-04T01:57:48.380Z,11.54
2022-09-04T01:58:48.357Z,11.52
2022-09-04T01:59:53.020Z,11.52
2022-09-04T02:00:49.416Z,11.51
2022-09-04T02:01:48.426Z,11.51
2022-09-04T02:02:48.867Z,11.47
2022-09-04T02:03:48.309Z,11.49
2022-09-04T02:04:48.307Z,11.46
2022-09-04T02:05:48.299Z,11.46
2022-09-04T02:06:48.259Z,11.42
2022-09-04T02:07:48.268Z,11.43
2022-09-04T02:08:48.236Z,11.43
2022-09-04T02:09:48.238Z,11.44
2022-09-04T02:10:48.299Z,11.42
2022-09-04T02:11:48.227Z,11.39
2022-09-04T02:12:48.198Z,11.36
2022-09-04T02:13:48.207Z,11.36
2022-09-04T02:14:48.177Z,11.35
2022-09-04T02:15:48.178Z,11.36
2022-09-04T02:16:48.197Z,11.37
2022-09-04T02:17:48.156Z,11.36
2022-09-04T02:18:48.127Z,11.37
2022-09-04T02:19:48.139Z,11.36
2022-09-04T02:20:48.107Z,11.35
2022-09-04T02:21:48.139Z,11.29
2022-09-04T02:22:48.087Z,11.29
2022-09-04T02:23:48.158Z,11.29
2022-09-04T02:24:48.065Z,11.32
2022-09-04T02:25:48.057Z,11.32
2022-09-04T02:26:48.043Z,11.29
2022-09-04T02:27:48.039Z,11.29
2022-09-04T02:28:48.025Z,11.29
2022-09-04T02:29:48.021Z,11.29
2022-09-04T02:30:48.006Z,11.29
2022-09-04T02:31:49.086Z,11.29
2022-09-04T02:32:47.978Z,11.29
2022-09-04T02:33:47.978Z,11.28
2022-09-04T02:34:48.347Z,11.27
2022-09-04T02:35:47.958Z,11.25
2022-09-04T02:36:50.373Z,11.25
2022-09-04T02:37:47.939Z,11.25
2022-09-04T02:38:47.896Z,11.24
2022-09-04T02:39:48.144Z,11.24
2022-09-04T02:40:48.167Z,11.24
2022-09-04T02:41:47.894Z,11.22
2022-09-04T02:42:47.861Z,11.21
2022-09-04T02:43:47.857Z,11.18
2022-09-04T02:44:47.837Z,11.18
2022-09-04T02:45:47.836Z,11.15
2022-09-04T02:46:47.878Z,11.17
2022-09-04T02:47:47.808Z,11.17
2022-09-04T02:48:48.449Z,11.15
2022-09-04T02:49:47.788Z,11.14
2022-09-04T02:50:47.775Z,11.10
2022-09-04T02:51:47.768Z,11.10
2022-09-04T02:52:47.746Z,11.09
2022-09-04T02:53:47.747Z,11.09
2022-09-04T02:54:47.717Z,11.10
2022-09-04T02:55:47.728Z,11.10
2022-09-04T02:56:47.702Z,11.11
2022-09-04T02:57:47.749Z,11.10
2022-09-04T02:58:47.701Z,11.10
2022-09-04T02:59:47.802Z,11.10
2022-09-04T03:00:47.745Z,11.10
2022-09-04T03:01:49.884Z,11.11
2022-09-04T03:02:48.178Z,11.11
2022-09-04T03:03:47.717Z,11.11
2022-09-04T03:04:47.606Z,11.11
2022-09-04T03:05:47.620Z,11.10
2022-09-04T03:06:47.611Z,11.11
2022-09-04T03:07:47.644Z,11.10
2022-09-04T03:08:47.648Z,11.07
2022-09-04T03:09:47.567Z,11.06
2022-09-04T03:10:47.627Z,11.06
2022-09-04T03:11:47.543Z,11.03
2022-09-04T03:12:47.526Z,11.00
2022-09-04T03:13:47.537Z,11.02
2022-09-04T03:14:47.500Z,11.00
2022-09-04T03:15:47.532Z,11.00
2022-09-04T03:16:47.467Z,11.02
2022-09-04T03:17:47.485Z,10.99
2022-09-04T03:18:47.482Z,10.97
2022-09-04T03:19:47.456Z,10.94
2022-09-04T03:20:48.230Z,10.92
2022-09-04T03:21:47.456Z,10.94
2022-09-04T03:22:47.457Z,10.94
2022-09-04T03:23:48.197Z,10.94
2022-09-04T03:24:47.755Z,10.94
2022-09-04T03:25:47.394Z,10.96
2022-09-04T03:26:47.356Z,10.96
2022-09-04T03:27:47.357Z,10.91
2022-09-04T03:28:47.350Z,10.91
2022-09-04T03:29:48.129Z,10.88
2022-09-04T03:30:47.357Z,10.89
2022-09-04T03:31:47.368Z,10.89
2022-09-04T03:32:47.307Z,10.88
2022-09-04T03:33:48.037Z,10.88
2022-09-04T03:34:47.320Z,10.86
2022-09-04T03:35:47.276Z,10.86
2022-09-04T03:36:47.244Z,10.84
2022-09-04T03:37:47.255Z,10.82
2022-09-04T03:38:47.241Z,10.82
2022-09-04T03:39:47.803Z,10.81
2022-09-04T03:40:48.097Z,10.79
2022-09-04T03:41:47.266Z,10.81
2022-09-04T03:42:47.298Z,10.78
2022-09-04T03:43:47.187Z,10.74
2022-09-04T03:44:47.276Z,10.76
2022-09-04T03:45:48.156Z,10.78
2022-09-04T03:46:48.090Z,10.78
2022-09-04T03:47:47.148Z,10.78
2022-09-04T03:48:47.846Z,10.78
2022-09-04T03:49:47.141Z,10.76
2022-09-04T03:50:47.907Z,10.76
2022-09-04T03:51:47.806Z,10.74
2022-09-04T03:52:47.106Z,10.74
2022-09-04T03:53:47.876Z,10.73
2022-09-04T03:54:47.777Z,10.71
2022-09-04T03:55:47.106Z,10.71
2022-09-04T03:56:47.837Z,10.71
2022-09-04T03:57:47.057Z,10.70
2022-09-04T03:58:47.017Z,10.70
2022-09-04T03:59:47.049Z,10.70
2022-09-04T04:00:47.069Z,10.68
2022-09-04T04:01:47.629Z,10.67
2022-09-04T04:02:47.813Z,10.70
2022-09-04T04:03:46.984Z,10.68
2022-09-04T04:04:46.970Z,10.67
2022-09-04T04:05:48.296Z,10.66
2022-09-04T04:06:47.656Z,10.66
2022-09-04T04:07:46.953Z,10.67
2022-09-04T04:08:46.951Z,10.66
2022-09-04T04:09:47.626Z,10.67
2022-09-04T04:10:46.875Z,10.67
2022-09-04T04:11:47.265Z,10.64
2022-09-04T04:12:46.885Z,10.64
2022-09-04T04:13:47.745Z,10.64
2022-09-04T04:14:47.673Z,10.61
2022-09-04T04:15:46.895Z,10.61
2022-09-04T04:16:48.010Z,10.61
2022-09-04T04:17:47.796Z,10.60
2022-09-04T04:18:46.807Z,10.56
2022-09-04T04:19:47.685Z,10.59
2022-09-04T04:20:47.585Z,10.56
2022-09-04T04:21:47.487Z,10.55
2022-09-04T04:22:46.767Z,10.53
2022-09-04T04:23:47.566Z,10.52
2022-09-04T04:24:46.766Z,10.52
2022-09-04T04:25:47.618Z,10.51
2022-09-04T04:26:50.543Z,10.51
2022-09-04T04:27:47.725Z,10.51
2022-09-04T04:28:47.586Z,10.48
2022-09-04T04:29:46.696Z,10.48
2022-09-04T04:30:46.675Z,10.48
2022-09-04T04:31:46.685Z,10.47
2022-09-04T04:32:46.985Z,10.48
2022-09-04T04:33:46.640Z,10.47
2022-09-04T04:34:46.997Z,10.45
2022-09-04T04:35:46.615Z,10.47
2022-09-04T04:36:46.585Z,10.48
2022-09-04T04:37:47.485Z,10.47
2022-09-04T04:38:47.395Z,10.47
2022-09-04T04:39:46.660Z,10.47
2022-09-04T04:40:46.527Z,10.47
2022-09-04T04:41:47.365Z,10.47
2022-09-04T04:42:47.266Z,10.48
2022-09-04T04:43:47.430Z,10.47
2022-09-04T04:44:46.525Z,10.47
2022-09-04T04:45:46.565Z,10.47
2022-09-04T04:46:46.760Z,10.48
2022-09-04T04:47:46.886Z,10.51
2022-09-04T04:48:46.444Z,10.51
2022-09-04T04:49:46.506Z,10.51
2022-09-04T04:50:47.007Z,10.51
2022-09-04T04:51:46.414Z,10.51
2022-09-04T04:52:47.015Z,10.51
2022-09-04T04:53:47.237Z,10.48
2022-09-04T04:54:47.145Z,10.48
2022-09-04T04:55:46.375Z,10.47
2022-09-04T04:56:47.104Z,10.51
2022-09-04T04:57:47.140Z,10.48
2022-09-04T04:58:46.344Z,10.47
2022-09-04T04:59:47.197Z,10.51
2022-09-04T05:00:46.336Z,10.51
2022-09-04T05:01:46.454Z,10.51
2022-09-04T05:02:47.209Z,10.53
2022-09-04T05:03:47.043Z,10.55
2022-09-04T05:04:47.207Z,10.56
2022-09-04T05:05:46.305Z,10.59
2022-09-04T05:06:46.274Z,10.59
2022-09-04T05:07:46.216Z,10.60
2022-09-04T05:08:47.074Z,10.60
2022-09-04T05:09:46.216Z,10.60
2022-09-04T05:10:46.213Z,10.60
2022-09-04T05:11:46.194Z,10.61
2022-09-04T05:12:46.213Z,10.63
2022-09-04T05:13:46.192Z,10.61
2022-09-04T05:14:46.195Z,10.64
2022-09-04T05:16:07.538Z,10.66
2022-09-04T05:16:48.504Z,10.67
2022-09-04T05:17:46.124Z,10.68
2022-09-04T05:18:46.162Z,10.68
2022-09-04T05:19:46.134Z,10.68
2022-09-04T05:20:46.132Z,10.70
2022-09-04T05:21:46.094Z,10.70
2022-09-04T05:22:46.793Z,10.73
2022-09-04T05:23:46.055Z,10.74
2022-09-04T05:24:46.083Z,10.76
2022-09-04T05:25:46.013Z,10.79
2022-09-04T05:26:46.882Z,10.84
2022-09-04T05:27:46.003Z,10.88
2022-09-04T05:28:46.034Z,10.92
2022-09-04T05:29:46.087Z,10.99
2022-09-04T05:30:46.132Z,11.06
2022-09-04T05:31:46.915Z,11.09
2022-09-04T05:32:46.114Z,11.17
2022-09-04T05:33:46.104Z,11.22
2022-09-04T05:34:45.933Z,11.27
2022-09-04T05:35:45.974Z,11.33
2022-09-04T05:36:45.983Z,11.39
2022-09-04T05:37:46.861Z,11.44
2022-09-04T05:38:46.762Z,11.51
2022-09-04T05:39:45.945Z,11.57
2022-09-04T05:40:45.867Z,11.64
2022-09-04T05:41:45.863Z,11.70
2022-09-04T05:42:45.854Z,11.75
2022-09-04T05:43:46.532Z,11.78
2022-09-04T05:44:45.862Z,11.82
2022-09-04T05:45:45.947Z,11.90
2022-09-04T05:46:45.865Z,11.94
2022-09-04T05:47:47.682Z,11.99
2022-09-04T05:48:46.567Z,12.04
2022-09-04T05:49:45.777Z,12.12
2022-09-04T05:50:45.931Z,12.14
2022-09-04T05:51:45.724Z,12.21
2022-09-04T05:52:45.749Z,12.27
2022-09-04T05:53:45.750Z,12.31
2022-09-04T05:54:46.516Z,12.34
2022-09-04T05:55:46.403Z,12.38
2022-09-04T05:56:45.702Z,12.45
2022-09-04T05:57:45.653Z,12.50
2022-09-04T05:58:45.683Z,12.56
2022-09-04T05:59:45.662Z,12.57
2022-09-04T06:00:45.721Z,12.62
2022-09-04T06:01:49.883Z,12.68
2022-09-04T06:02:46.668Z,12.74
2022-09-04T06:03:46.411Z,12.78
2022-09-04T06:04:46.318Z,12.85
2022-09-04T06:05:45.583Z,12.89
2022-09-04T06:06:45.586Z,12.95
2022-09-04T06:07:45.733Z,13.01
2022-09-04T06:08:46.239Z,13.05
2022-09-04T06:09:45.804Z,13.12
2022-09-04T06:10:45.543Z,13.20
2022-09-04T06:11:45.496Z,13.25
2022-09-04T06:12:45.503Z,13.36
2022-09-04T06:13:45.512Z,13.41
2022-09-04T06:14:45.491Z,13.49
2022-09-04T06:15:45.560Z,13.57
2022-09-04T06:16:45.472Z,13.64
2022-09-04T06:17:45.453Z,13.70
2022-09-04T06:18:46.244Z,13.81
2022-09-04T06:19:45.443Z,13.85
2022-09-04T06:20:45.432Z,13.92
2022-09-04T06:21:45.442Z,14.00
2022-09-04T06:22:48.083Z,14.09
2022-09-04T06:23:45.477Z,14.17
2022-09-04T06:24:45.472Z,14.24
2022-09-04T06:25:46.082Z,14.33
2022-09-04T06:26:45.402Z,14.37
2022-09-04T06:27:45.334Z,14.42
2022-09-04T06:28:46.260Z,14.50
2022-09-04T06:29:45.306Z,14.57
2022-09-04T06:30:45.312Z,14.64
2022-09-04T06:31:45.284Z,14.73
2022-09-04T06:32:45.283Z,14.81
2022-09-04T06:33:45.543Z,14.91
2022-09-04T06:34:45.272Z,14.99
2022-09-04T06:35:45.245Z,15.06
2022-09-04T06:36:45.286Z,15.11
2022-09-04T06:37:45.673Z,15.20
2022-09-04T06:38:45.242Z,15.28
2022-09-04T06:39:45.231Z,15.35
2022-09-04T06:40:45.215Z,15.43
2022-09-04T06:41:45.703Z,15.50
2022-09-04T06:42:45.170Z,15.59
2022-09-04T06:43:45.302Z,15.65
2022-09-04T06:44:45.233Z,15.67
2022-09-04T06:45:45.133Z,15.72
2022-09-04T06:46:45.208Z,15.76
2022-09-04T06:47:45.103Z,15.86
2022-09-04T06:48:45.205Z,15.92
2022-09-04T06:49:45.072Z,15.96
2022-09-04T06:50:45.243Z,16.02
2022-09-04T06:51:45.055Z,16.11
2022-09-04T06:52:45.053Z,16.15
2022-09-04T06:53:45.032Z,16.24
2022-09-04T06:54:45.083Z,16.28
2022-09-04T06:55:45.003Z,16.34
2022-09-04T06:56:45.014Z,16.41
2022-09-04T06:57:44.983Z,16.45
2022-09-04T06:58:44.985Z,16.56
2022-09-04T06:59:44.976Z,16.66
2022-09-04T07:00:44.965Z,16.67
2022-09-04T07:01:45.005Z,16.68
2022-09-04T07:02:45.132Z,16.73
2022-09-04T07:03:44.927Z,16.79
2022-09-04T07:04:44.994Z,16.86
2022-09-04T07:05:45.607Z,16.96
2022-09-04T07:06:44.903Z,17.00
2022-09-04T07:07:44.876Z,17.04
2022-09-04T07:08:44.975Z,17.07
2022-09-04T07:09:44.844Z,17.11
2022-09-04T07:10:44.854Z,17.16
2022-09-04T07:11:44.832Z,17.22
2022-09-04T07:12:44.862Z,17.21
2022-09-04T07:13:44.813Z,17.28
2022-09-04T07:14:44.816Z,17.30
2022-09-04T07:15:44.881Z,17.30
2022-09-04T07:16:44.795Z,17.34
2022-09-04T07:17:44.774Z,17.38
2022-09-04T07:18:45.244Z,17.46
2022-09-04T07:19:44.734Z,17.51
2022-09-04T07:20:44.744Z,17.56
2022-09-04T07:21:44.765Z,17.64
2022-09-04T07:22:44.723Z,17.75
2022-09-04T07:23:44.705Z,17.81
2022-09-04T07:24:45.545Z,17.89
2022-09-04T07:25:44.723Z,17.95
2022-09-04T07:26:44.984Z,18.02
2022-09-04T07:27:44.977Z,18.12
2022-09-04T07:28:45.104Z,18.17
2022-09-04T07:29:44.624Z,18.27
2022-09-04T07:30:44.647Z,18.37
2022-09-04T07:31:44.659Z,18.47
2022-09-04T07:32:44.614Z,18.55
2022-09-04T07:33:44.604Z,18.58
2022-09-04T07:34:44.595Z,18.66
2022-09-04T07:35:44.574Z,18.73
2022-09-04T07:36:44.568Z,18.76
2022-09-04T07:37:44.554Z,18.85
2022-09-04T07:38:44.551Z,18.90
2022-09-04T07:39:45.593Z,18.98
2022-09-04T07:40:44.528Z,19.04
2022-09-04T07:41:44.506Z,19.11
2022-09-04T07:42:44.485Z,19.19
2022-09-04T07:43:44.488Z,19.22
2022-09-04T07:44:44.466Z,19.28
2022-09-04T07:45:44.465Z,19.33
2022-09-04T07:46:44.627Z,19.37
2022-09-04T07:47:44.445Z,19.36
2022-09-04T07:48:44.615Z,19.40
2022-09-04T07:49:44.434Z,19.44
2022-09-04T07:50:44.417Z,19.51
2022-09-04T07:51:44.397Z,19.59
2022-09-04T07:52:44.395Z,19.65
2022-09-04T07:53:44.366Z,19.69
2022-09-04T07:54:44.656Z,19.74
2022-09-04T07:55:44.396Z,19.84
2022-09-04T07:56:44.328Z,19.81
2022-09-04T07:57:44.326Z,19.86
2022-09-04T07:58:44.309Z,19.94
2022-09-04T07:59:44.306Z,19.96
2022-09-04T08:00:44.295Z,20.01
2022-09-04T08:01:44.339Z,20.10
2022-09-04T08:02:44.997Z,20.16
2022-09-04T08:03:53.968Z,20.24
2022-09-04T08:04:45.276Z,20.32
2022-09-04T08:05:44.247Z,20.39
2022-09-04T08:06:44.229Z,20.51
2022-09-04T08:07:44.220Z,20.52
2022-09-04T08:08:44.197Z,20.55
2022-09-04T08:09:44.207Z,20.61
2022-09-04T08:10:44.181Z,20.69
2022-09-04T08:11:44.182Z,20.70
2022-09-04T08:12:44.166Z,20.73
2022-09-04T08:13:44.140Z,20.76
2022-09-04T08:14:44.147Z,20.84
2022-09-04T08:15:44.193Z,20.91
2022-09-04T08:16:44.107Z,20.99
2022-09-04T08:17:44.127Z,21.07
2022-09-04T08:18:44.103Z,21.12
2022-09-04T08:19:44.069Z,21.16
2022-09-04T08:20:44.069Z,21.21
2022-09-04T08:21:44.057Z,21.24
2022-09-04T08:22:44.127Z,21.31
2022-09-04T08:23:44.057Z,21.34
2022-09-04T08:24:44.027Z,21.40
2022-09-04T08:25:44.000Z,21.43
2022-09-04T08:26:44.007Z,21.47
2022-09-04T08:27:44.477Z,21.50
2022-09-04T08:28:46.285Z,21.53
2022-09-04T08:29:43.967Z,21.61
2022-09-04T08:30:44.004Z,21.68
2022-09-04T08:31:43.937Z,21.71
2022-09-04T08:32:43.948Z,21.75
2022-09-04T08:33:43.928Z,21.80
2022-09-04T08:34:43.918Z,21.82
2022-09-04T08:35:43.898Z,21.83
2022-09-04T08:36:43.899Z,21.91
2022-09-04T08:37:43.868Z,21.92
2022-09-04T08:38:43.868Z,21.94
2022-09-04T08:39:43.910Z,22.03
2022-09-04T08:40:43.880Z,22.03
2022-09-04T08:41:43.837Z,21.99
2022-09-04T08:42:43.841Z,21.94
2022-09-04T08:43:43.819Z,21.96
2022-09-04T08:44:43.831Z,22.02
2022-09-04T08:45:43.791Z,22.07
2022-09-04T08:46:43.831Z,22.10
2022-09-04T08:47:43.768Z,22.14
2022-09-04T08:48:43.776Z,22.22
2022-09-04T08:49:43.740Z,22.33
2022-09-04T08:50:43.751Z,22.40
2022-09-04T08:51:43.718Z,22.49
2022-09-04T08:52:43.732Z,22.58
2022-09-04T08:53:43.729Z,22.60
2022-09-04T08:54:43.701Z,22.61
2022-09-04T08:55:43.678Z,22.65
2022-09-04T08:56:43.676Z,22.70
2022-09-04T08:57:43.649Z,22.73
2022-09-04T08:58:47.668Z,22.77
2022-09-04T08:59:43.635Z,22.83
2022-09-04T09:00:43.632Z,22.92
2022-09-04T09:01:43.635Z,23.01
2022-09-04T09:02:43.659Z,23.07
2022-09-04T09:03:43.599Z,23.07
2022-09-04T09:04:43.600Z,23.02
2022-09-04T09:05:43.560Z,22.94
2022-09-04T09:06:43.560Z,23.00
2022-09-04T09:07:43.541Z,23.13
2022-09-04T09:08:43.554Z,23.22
2022-09-04T09:09:43.541Z,23.28
2022-09-04T09:10:43.520Z,23.36
2022-09-04T09:11:44.238Z,23.42
2022-09-04T09:12:43.519Z,23.43
2022-09-04T09:13:43.495Z,23.48
2022-09-04T09:14:43.488Z,23.47
2022-09-04T09:15:43.483Z,23.43
2022-09-04T09:16:43.485Z,23.31
2022-09-04T09:17:43.441Z,23.28
2022-09-04T09:18:43.430Z,23.42
2022-09-04T09:19:43.421Z,23.54
2022-09-04T09:20:43.391Z,23.63
2022-09-04T09:21:43.402Z,23.76
2022-09-04T09:22:43.397Z,23.84
2022-09-04T09:23:43.382Z,23.88
2022-09-04T09:24:43.347Z,23.87
2022-09-04T09:25:44.107Z,23.87
2022-09-04T09:26:43.332Z,23.91
2022-09-04T09:27:43.361Z,24.00
2022-09-04T09:28:43.382Z,24.09
2022-09-04T09:29:43.320Z,24.16
2022-09-04T09:30:43.351Z,24.22
2022-09-04T09:31:43.292Z,24.25
2022-09-04T09:32:43.290Z,24.32
2022-09-04T09:33:43.301Z,24.34
2022-09-04T09:34:43.242Z,24.39
2022-09-04T09:35:43.255Z,24.31
2022-09-04T09:36:43.234Z,24.28
2022-09-04T09:37:43.271Z,24.25
2022-09-04T09:38:43.203Z,24.27
2022-09-04T09:39:43.264Z,24.31
2022-09-04T09:40:43.188Z,24.30
2022-09-04T09:41:43.177Z,24.31
2022-09-04T09:42:43.153Z,24.42
2022-09-04T09:43:43.164Z,24.52
2022-09-04T09:44:43.875Z,24.58
2022-09-04T09:45:43.204Z,24.65
2022-09-04T09:46:43.113Z,24.69
2022-09-04T09:47:43.123Z,24.73
2022-09-04T09:48:43.085Z,24.81
2022-09-04T09:49:43.125Z,24.95
2022-09-04T09:50:43.194Z,25.03
2022-09-04T09:51:43.076Z,25.08
2022-09-04T09:52:43.043Z,25.10
2022-09-04T09:53:47.070Z,25.14
2022-09-04T09:54:43.044Z,25.17
2022-09-04T09:55:43.036Z,25.24
2022-09-04T09:56:43.005Z,25.32
2022-09-04T09:57:44.033Z,25.36
2022-09-04T09:58:42.974Z,25.42
2022-09-04T09:59:42.979Z,25.45
2022-09-04T10:00:43.875Z,25.46
2022-09-04T10:01:43.064Z,25.50
2022-09-04T10:02:43.732Z,25.47
2022-09-04T10:03:43.017Z,25.45
2022-09-04T10:04:42.925Z,25.51
2022-09-04T10:05:42.945Z,25.57
2022-09-04T10:06:42.895Z,25.64
2022-09-04T10:07:42.906Z,25.72
2022-09-04T10:08:42.877Z,25.70
2022-09-04T10:09:42.879Z,25.65
2022-09-04T10:10:42.876Z,25.64
2022-09-04T10:11:42.856Z,25.64
2022-09-04T10:12:42.828Z,25.75
2022-09-04T10:13:42.826Z,25.77
2022-09-04T10:14:42.798Z,25.85
2022-09-04T10:15:42.806Z,25.94
2022-09-04T10:16:42.909Z,26.06
2022-09-04T10:17:43.531Z,26.12
2022-09-04T10:18:42.788Z,26.20
2022-09-04T10:19:42.793Z,26.32
2022-09-04T10:20:42.738Z,26.45
2022-09-04T10:21:42.737Z,26.60
2022-09-04T10:22:42.748Z,26.76
2022-09-04T10:23:42.733Z,26.99
2022-09-04T10:24:42.709Z,27.06
2022-09-04T10:25:42.712Z,26.87
2022-09-04T10:26:42.681Z,26.84
2022-09-04T10:27:44.094Z,26.94
2022-09-04T10:28:42.675Z,26.97
2022-09-04T10:29:42.708Z,26.73
2022-09-04T10:30:43.397Z,26.76
2022-09-04T10:31:42.637Z,26.73
2022-09-04T10:32:42.610Z,26.72
2022-09-04T10:33:42.629Z,26.45
2022-09-04T10:34:42.593Z,26.17
2022-09-04T10:35:42.600Z,26.18
2022-09-04T10:36:43.188Z,26.32
2022-09-04T10:37:42.571Z,26.50
2022-09-04T10:38:42.541Z,26.67
2022-09-04T10:39:42.661Z,26.87
2022-09-04T10:40:45.177Z,27.04
2022-09-04T10:41:42.549Z,27.12
2022-09-04T10:42:42.720Z,27.28
2022-09-04T10:43:42.509Z,27.39
2022-09-04T10:44:42.508Z,27.46
2022-09-04T10:45:42.994Z,27.67
2022-09-04T10:46:42.460Z,27.82
2022-09-04T10:47:42.473Z,27.93
2022-09-04T10:48:42.433Z,28.14
2022-09-04T10:49:43.273Z,28.34
2022-09-04T10:50:43.222Z,28.30
2022-09-04T10:51:42.444Z,28.19
2022-09-04T10:52:42.400Z,28.11
2022-09-04T10:53:42.425Z,27.92
2022-09-04T10:54:42.392Z,27.85
2022-09-04T10:55:42.446Z,27.78
2022-09-04T10:56:42.351Z,27.72
2022-09-04T10:57:42.353Z,27.60
2022-09-04T10:58:42.354Z,27.39
2022-09-04T10:59:42.358Z,27.22
2022-09-04T11:00:42.483Z,27.12
2022-09-04T11:01:43.143Z,27.04
2022-09-04T11:02:43.153Z,27.22
2022-09-04T11:03:42.293Z,27.25
2022-09-04T11:04:42.281Z,27.12
2022-09-04T11:05:43.106Z,26.85
2022-09-04T11:06:42.274Z,26.76
2022-09-04T11:07:43.081Z,26.85
2022-09-04T11:08:42.773Z,27.00
2022-09-04T11:09:42.225Z,27.18
2022-09-04T11:10:42.273Z,27.41
2022-09-04T11:11:42.243Z,27.59
2022-09-04T11:12:42.884Z,27.60
2022-09-04T11:13:42.195Z,27.59
2022-09-04T11:14:42.173Z,27.46
2022-09-04T11:15:42.185Z,27.40
2022-09-04T11:16:42.608Z,27.46
2022-09-04T11:17:42.884Z,27.37
2022-09-04T11:18:42.825Z,27.44
2022-09-04T11:19:42.165Z,27.55
2022-09-04T11:20:42.126Z,27.62
2022-09-04T11:21:42.137Z,27.69
2022-09-04T11:22:42.074Z,27.87
2022-09-04T11:23:42.836Z,28.00
2022-09-04T11:24:42.057Z,28.12
2022-09-04T11:25:42.696Z,28.29
2022-09-04T11:26:42.705Z,28.43
2022-09-04T11:27:42.366Z,28.33
2022-09-04T11:28:42.125Z,28.19
2022-09-04T11:29:42.238Z,27.65
2022-09-04T11:30:47.860Z,27.27
2022-09-04T11:31:43.163Z,27.25
2022-09-04T11:32:42.727Z,27.36
2022-09-04T11:33:41.983Z,27.41
2022-09-04T11:34:42.000Z,27.44
2022-09-04T11:35:42.086Z,27.46
2022-09-04T11:36:41.928Z,27.57
2022-09-04T11:37:42.276Z,27.27
2022-09-04T11:38:41.925Z,27.28
2022-09-04T11:39:42.012Z,27.28
2022-09-04T11:40:42.167Z,26.77
2022-09-04T11:41:41.879Z,26.57
2022-09-04T11:42:41.947Z,26.55
2022-09-04T11:43:41.891Z,26.58
2022-09-04T11:44:43.139Z,26.58
2022-09-04T11:45:41.951Z,26.69
2022-09-04T11:46:41.826Z,26.62
2022-09-04T11:47:41.819Z,26.43
2022-09-04T11:48:42.328Z,26.36
2022-09-04T11:49:42.283Z,26.09
2022-09-04T11:50:41.777Z,26.05
2022-09-04T11:51:41.815Z,26.21
2022-09-04T11:52:42.848Z,26.35
2022-09-04T11:53:41.978Z,26.58
2022-09-04T11:54:41.747Z,26.77
2022-09-04T11:55:41.750Z,27.00
2022-09-04T11:56:41.721Z,27.02
2022-09-04T11:57:41.722Z,26.91
2022-09-04T11:58:41.721Z,26.85
2022-09-04T11:59:41.719Z,26.72
2022-09-04T12:00:42.017Z,26.58
2022-09-04T12:01:47.068Z,26.35
2022-09-04T12:02:43.455Z,26.10
2022-09-04T12:03:42.394Z,25.82
2022-09-04T12:04:42.471Z,25.67
2022-09-04T12:05:41.631Z,25.87
2022-09-04T12:06:42.255Z,26.07
2022-09-04T12:07:43.546Z,26.23
2022-09-04T12:08:42.349Z,25.97
2022-09-04T12:09:41.590Z,26.12
2022-09-04T12:10:41.590Z,26.28
2022-09-04T12:11:41.610Z,26.58
2022-09-04T12:12:41.531Z,26.95
2022-09-04T12:13:41.571Z,27.25
2022-09-04T12:14:41.523Z,27.55
2022-09-04T12:15:41.537Z,27.78
2022-09-04T12:16:44.426Z,28.03
2022-09-04T12:17:41.508Z,28.27
2022-09-04T12:18:42.455Z,28.24
2022-09-04T12:19:42.310Z,28.39
2022-09-04T12:20:41.741Z,28.52
2022-09-04T12:21:41.470Z,28.68
2022-09-04T12:22:41.432Z,28.80
2022-09-04T12:23:42.217Z,28.86
2022-09-04T12:24:41.401Z,28.85
2022-09-04T12:25:41.473Z,28.92
2022-09-04T12:26:51.753Z,28.89
2022-09-04T12:27:42.413Z,28.89
2022-09-04T12:28:41.389Z,28.89
2022-09-04T12:29:41.393Z,28.92
2022-09-04T12:30:41.355Z,28.98
2022-09-04T12:31:41.398Z,28.93
2022-09-04T12:32:41.314Z,28.90
2022-09-04T12:33:42.023Z,28.96
2022-09-04T12:34:41.310Z,29.08
2022-09-04T12:35:41.844Z,29.19
2022-09-04T12:36:41.274Z,29.30
2022-09-04T12:37:41.315Z,29.37
2022-09-04T12:38:41.253Z,29.21
2022-09-04T12:39:41.441Z,29.23
2022-09-04T12:40:42.092Z,29.33
2022-09-04T12:41:41.255Z,29.49
2022-09-04T12:42:41.316Z,29.55
2022-09-04T12:43:41.236Z,29.58
2022-09-04T12:44:41.952Z,29.67
2022-09-04T12:45:41.361Z,29.65
2022-09-04T12:46:42.031Z,29.71
2022-09-04T12:47:41.178Z,29.67
2022-09-04T12:48:41.180Z,29.73
2022-09-04T12:49:41.227Z,30.04
2022-09-04T12:50:41.172Z,30.32
2022-09-04T12:51:41.363Z,30.32
2022-09-04T12:52:41.576Z,30.13